createdAt,value
2018-07-01T00:00:10.478Z,20.58
2018-07-01T00:01:10.204Z,20.58
2018-07-01T00:02:10.166Z,20.61
2018-07-01T00:03:10.071Z,20.57
2018-07-01T00:04:10.090Z,20.56
2018-07-01T00:05:09.890Z,20.53
2018-07-01T00:06:09.894Z,20.57
2018-07-01T00:07:09.724Z,20.60
2018-07-01T00:08:09.746Z,20.60
2018-07-01T00:09:09.590Z,20.57
2018-07-01T00:10:09.612Z,20.64
2018-07-01T00:11:09.407Z,20.61
2018-07-01T00:12:09.427Z,20.57
2018-07-01T00:13:09.286Z,20.42
2018-07-01T00:14:09.235Z,20.64
2018-07-01T00:15:09.106Z,20.50
2018-07-01T00:16:09.134Z,20.42
2018-07-01T00:17:08.953Z,20.42
2018-07-01T00:18:08.986Z,20.54
2018-07-01T00:19:08.792Z,20.34
2018-07-01T00:20:08.754Z,20.48
2018-07-01T00:21:08.634Z,20.38
2018-07-01T00:22:08.685Z,20.38
2018-07-01T00:23:08.507Z,20.41
2018-07-01T00:24:08.472Z,20.46
2018-07-01T00:25:08.340Z,20.44
2018-07-01T00:26:08.284Z,20.37
2018-07-01T00:27:08.174Z,20.41
2018-07-01T00:29:50.214Z,20.30
2018-07-01T00:30:50.219Z,20.34
2018-07-01T00:31:50.028Z,20.30
2018-07-01T00:32:49.998Z,20.34
2018-07-01T00:33:49.872Z,20.23
2018-07-01T00:34:49.918Z,20.17
2018-07-01T00:35:49.730Z,20.16
2018-07-01T00:38:31.684Z,20.26
2018-07-01T00:39:31.749Z,20.31
2018-07-01T00:40:31.524Z,20.23
2018-07-01T00:41:31.522Z,20.26
2018-07-01T00:42:31.376Z,20.23
2018-07-01T00:43:31.332Z,20.08
2018-07-01T00:44:31.249Z,20.15
2018-07-01T00:45:31.242Z,20.16
2018-07-01T00:46:31.057Z,20.17
2018-07-01T00:47:31.070Z,20.16
2018-07-01T00:48:30.899Z,20.16
2018-07-01T00:49:30.860Z,20.15
2018-07-01T00:50:30.772Z,20.15
2018-07-01T00:51:30.770Z,20.16
2018-07-01T00:52:30.616Z,20.13
2018-07-01T00:53:30.589Z,20.10
2018-07-01T00:54:30.447Z,20.05
2018-07-01T00:55:30.430Z,20.08
2018-07-01T00:56:30.274Z,20.08
2018-07-01T00:57:30.308Z,20.02
2018-07-01T00:58:30.115Z,20.04
2018-07-01T00:59:30.107Z,19.94
2018-07-01T01:00:29.987Z,20.05
2018-07-01T01:01:30.013Z,19.95
2018-07-01T01:02:29.816Z,19.90
2018-07-01T01:03:29.823Z,19.98
2018-07-01T01:04:29.652Z,19.92
2018-07-01T01:05:29.673Z,19.92
2018-07-01T01:06:29.518Z,20.00
2018-07-01T01:09:11.699Z,19.89
2018-07-01T01:10:11.638Z,19.94
2018-07-01T01:11:11.568Z,19.92
2018-07-01T01:12:11.572Z,19.90
2018-07-01T01:13:11.388Z,19.94
2018-07-01T01:14:11.363Z,19.87
2018-07-01T01:15:11.233Z,19.89
2018-07-01T01:16:11.211Z,19.95
2018-07-01T01:17:11.122Z,19.92
2018-07-01T01:18:11.084Z,19.92
2018-07-01T01:19:10.909Z,19.92
2018-07-01T01:20:10.907Z,19.72
2018-07-01T01:21:10.761Z,19.83
2018-07-01T01:37:33.572Z,19.57
2018-07-01T01:38:33.438Z,19.62
2018-07-01T01:39:33.454Z,19.61
2018-07-01T01:40:33.244Z,19.60
2018-07-01T01:41:33.251Z,19.61
2018-07-01T01:42:33.091Z,19.52
2018-07-01T01:43:33.098Z,19.50
2018-07-01T01:44:32.952Z,19.42
2018-07-01T01:45:32.968Z,19.52
2018-07-01T01:46:32.786Z,19.52
2018-07-01T01:47:32.779Z,19.49
2018-07-01T01:48:32.648Z,19.57
2018-07-01T01:49:32.583Z,19.64
2018-07-01T01:50:32.468Z,19.65
2018-07-01T01:51:32.503Z,19.55
2018-07-01T01:52:32.311Z,19.57
2018-07-01T01:53:32.331Z,19.60
2018-07-01T01:54:32.154Z,19.49
2018-07-01T01:55:32.116Z,19.52
2018-07-01T01:56:31.999Z,19.50
2018-07-01T01:57:32.025Z,19.57
2018-07-01T01:58:31.919Z,19.53
2018-07-01T01:59:31.881Z,19.47
2018-07-01T02:00:31.676Z,19.46
2018-07-01T02:01:31.651Z,19.35
2018-07-01T02:02:31.547Z,19.34
2018-07-01T02:03:31.556Z,19.31
2018-07-01T02:04:31.401Z,19.34
2018-07-01T02:05:31.365Z,19.32
2018-07-01T02:06:31.210Z,19.34
2018-07-01T02:07:31.180Z,19.35
2018-07-01T02:08:31.051Z,19.40
2018-07-01T02:09:32.039Z,19.35
2018-07-01T02:10:30.903Z,19.31
2018-07-01T02:11:30.893Z,19.46
2018-07-01T02:12:30.736Z,19.43
2018-07-01T02:13:30.706Z,19.47
2018-07-01T02:14:30.582Z,19.30
2018-07-01T02:15:30.691Z,19.28
2018-07-01T02:16:30.422Z,19.34
2018-07-01T02:17:30.420Z,19.32
2018-07-01T02:18:30.264Z,19.30
2018-07-01T02:19:30.232Z,19.28
2018-07-01T02:20:30.124Z,19.28
2018-07-01T02:21:30.150Z,19.28
2018-07-01T02:22:29.975Z,19.27
2018-07-01T02:23:29.945Z,19.23
2018-07-01T02:24:29.831Z,19.24
2018-07-01T02:25:29.792Z,19.23
2018-07-01T02:26:29.664Z,19.10
2018-07-01T02:27:29.667Z,19.13
2018-07-01T02:28:29.481Z,19.20
2018-07-01T02:29:29.466Z,19.09
2018-07-01T02:30:29.360Z,19.10
2018-07-01T02:31:29.281Z,18.97
2018-07-01T02:32:29.169Z,19.02
2018-07-01T02:33:29.194Z,19.01
2018-07-01T02:34:29.011Z,18.96
2018-07-01T02:35:29.036Z,18.99
2018-07-01T02:36:28.857Z,18.96
2018-07-01T02:37:28.809Z,18.94
2018-07-01T02:38:28.732Z,18.97
2018-07-01T02:39:28.714Z,18.97
2018-07-01T02:40:28.575Z,19.06
2018-07-01T02:41:28.529Z,18.90
2018-07-01T02:42:28.385Z,18.91
2018-07-01T02:43:28.464Z,18.90
2018-07-01T02:44:28.222Z,19.02
2018-07-01T02:45:28.277Z,18.94
2018-07-01T02:46:28.095Z,19.05
2018-07-01T02:47:28.054Z,18.97
2018-07-01T02:48:27.913Z,18.96
2018-07-01T02:49:27.862Z,18.93
2018-07-01T02:50:27.756Z,18.94
2018-07-01T02:51:27.798Z,18.99
2018-07-01T02:52:27.598Z,18.99
2018-07-01T02:53:27.605Z,19.02
2018-07-01T02:54:27.448Z,19.01
2018-07-01T02:55:27.392Z,18.93
2018-07-01T02:56:27.309Z,18.78
2018-07-01T02:57:27.305Z,18.89
2018-07-01T02:58:27.120Z,18.84
2018-07-01T02:59:27.153Z,18.90
2018-07-01T03:00:26.969Z,18.84
2018-07-01T03:01:26.945Z,18.89
2018-07-01T03:02:26.840Z,18.79
2018-07-01T03:03:26.838Z,18.78
2018-07-01T03:04:26.665Z,18.74
2018-07-01T03:05:26.636Z,18.76
2018-07-01T03:06:26.490Z,18.72
2018-07-01T03:07:26.488Z,18.71
2018-07-01T03:08:26.340Z,18.72
2018-07-01T03:11:08.232Z,18.75
2018-07-01T03:13:50.250Z,18.75
2018-07-01T03:14:50.258Z,18.71
2018-07-01T03:15:50.076Z,18.68
2018-07-01T03:16:50.073Z,18.76
2018-07-01T03:17:49.954Z,18.69
2018-07-01T03:18:49.864Z,18.71
2018-07-01T03:19:49.758Z,18.64
2018-07-01T03:20:49.785Z,18.62
2018-07-01T03:21:49.606Z,18.66
2018-07-01T03:22:49.631Z,18.66
2018-07-01T03:23:49.444Z,18.66
2018-07-01T03:24:49.501Z,18.62
2018-07-01T03:25:49.298Z,18.62
2018-07-01T03:26:49.316Z,18.54
2018-07-01T03:27:49.179Z,18.62
2018-07-01T03:28:51.112Z,18.57
2018-07-01T03:29:48.977Z,18.51
2018-07-01T03:30:48.928Z,18.62
2018-07-01T03:31:48.816Z,18.53
2018-07-01T03:34:30.780Z,18.53
2018-07-01T03:35:30.729Z,18.57
2018-07-01T03:36:30.577Z,18.59
2018-07-01T03:39:12.759Z,18.57
2018-07-01T03:40:12.744Z,18.56
2018-07-01T03:41:12.578Z,18.57
2018-07-01T03:42:12.552Z,18.56
2018-07-01T03:43:12.431Z,18.53
2018-07-01T03:44:12.497Z,18.56
2018-07-01T03:45:12.299Z,18.51
2018-07-01T03:46:12.270Z,18.47
2018-07-01T03:47:12.111Z,18.44
2018-07-01T03:49:36.741Z,18.47
2018-07-01T03:50:36.805Z,18.51
2018-07-01T03:51:36.579Z,18.47
2018-07-01T03:54:18.768Z,18.46
2018-07-01T03:55:18.841Z,18.50
2018-07-01T03:57:43.253Z,18.53
2018-07-01T03:58:43.273Z,18.53
2018-07-01T03:59:43.106Z,18.44
2018-07-01T04:00:43.118Z,18.38
2018-07-01T04:01:42.942Z,18.44
2018-07-01T04:04:08.244Z,18.38
2018-07-01T04:05:08.193Z,18.44
2018-07-01T04:06:08.097Z,18.53
2018-07-01T04:07:08.106Z,18.57
2018-07-01T04:08:07.925Z,18.60
2018-07-01T04:10:49.779Z,18.64
2018-07-01T04:11:49.721Z,18.56
2018-07-01T04:12:49.588Z,18.62
2018-07-01T04:17:04.838Z,18.56
2018-07-01T04:18:02.670Z,18.53
2018-07-01T04:19:03.077Z,18.49
2018-07-01T04:20:02.509Z,18.51
2018-07-01T04:21:02.469Z,18.53
2018-07-01T04:22:02.386Z,18.54
2018-07-01T04:23:02.383Z,18.50
2018-07-01T04:24:02.201Z,18.65
2018-07-01T04:25:02.183Z,18.62
2018-07-01T04:26:02.041Z,18.57
2018-07-01T04:27:02.029Z,18.50
2018-07-01T04:28:01.902Z,18.50
2018-07-01T04:29:01.905Z,18.54
2018-07-01T04:30:01.730Z,18.53
2018-07-01T04:31:01.773Z,18.53
2018-07-01T04:32:01.608Z,18.69
2018-07-01T04:33:01.519Z,18.53
2018-07-01T04:34:01.416Z,18.56
2018-07-01T04:35:01.427Z,18.66
2018-07-01T04:36:01.250Z,18.68
2018-07-01T04:37:01.268Z,18.72
2018-07-01T04:38:01.096Z,18.65
2018-07-01T04:39:01.050Z,18.71
2018-07-01T04:40:00.931Z,18.69
2018-07-01T04:41:00.955Z,18.71
2018-07-01T04:42:00.806Z,18.72
2018-07-01T04:43:00.808Z,18.66
2018-07-01T04:44:00.653Z,18.68
2018-07-01T04:45:00.571Z,18.68
2018-07-01T04:46:00.463Z,18.72
2018-07-01T04:47:00.485Z,18.75
2018-07-01T04:48:00.358Z,18.82
2018-07-01T04:49:00.296Z,18.74
2018-07-01T04:50:00.157Z,18.71
2018-07-01T04:51:00.107Z,18.75
2018-07-01T04:52:00.002Z,18.74
2018-07-01T04:53:00.017Z,18.87
2018-07-01T04:53:59.860Z,18.79
2018-07-01T04:54:59.839Z,18.96
2018-07-01T04:55:59.681Z,19.01
2018-07-01T04:56:59.631Z,18.97
2018-07-01T04:57:59.546Z,18.99
2018-07-01T04:58:59.543Z,18.97
2018-07-01T04:59:59.394Z,18.94
2018-07-01T05:00:59.345Z,18.97
2018-07-01T05:01:59.219Z,19.12
2018-07-01T05:02:59.158Z,19.09
2018-07-01T05:03:59.070Z,19.12
2018-07-01T05:04:59.115Z,19.15
2018-07-01T05:05:58.892Z,19.12
2018-07-01T05:06:58.875Z,19.24
2018-07-01T05:07:58.746Z,19.28
2018-07-01T05:08:58.683Z,19.30
2018-07-01T05:09:58.607Z,19.32
2018-07-01T05:10:58.595Z,19.32
2018-07-01T05:11:58.429Z,19.42
2018-07-01T05:12:58.402Z,19.43
2018-07-01T05:13:58.298Z,19.43
2018-07-01T05:14:58.212Z,19.43
2018-07-01T05:15:58.106Z,19.46
2018-07-01T05:16:58.124Z,19.46
2018-07-01T05:17:57.967Z,19.42
2018-07-01T05:18:57.972Z,19.39
2018-07-01T05:19:57.804Z,19.46
2018-07-01T05:22:39.764Z,19.47
2018-07-01T05:23:39.737Z,19.58
2018-07-01T05:24:39.646Z,19.55
2018-07-01T05:25:39.576Z,19.58
2018-07-01T05:26:39.451Z,19.61
2018-07-01T05:27:39.542Z,19.64
2018-07-01T05:28:39.304Z,19.55
2018-07-01T05:29:39.281Z,19.61
2018-07-01T05:30:39.159Z,19.58
2018-07-01T05:31:39.177Z,19.67
2018-07-01T05:32:38.981Z,19.80
2018-07-01T05:33:38.991Z,19.70
2018-07-01T05:34:38.822Z,19.72
2018-07-01T05:35:38.938Z,19.68
2018-07-01T05:36:38.678Z,19.79
2018-07-01T05:37:38.704Z,19.85
2018-07-01T05:38:38.552Z,19.82
2018-07-01T05:39:38.514Z,19.85
2018-07-01T05:40:38.378Z,19.82
2018-07-01T05:41:38.413Z,19.89
2018-07-01T05:42:38.202Z,19.90
2018-07-01T05:43:38.244Z,19.98
2018-07-01T05:44:38.050Z,20.01
2018-07-01T05:47:20.301Z,19.95
2018-07-01T05:48:20.240Z,20.07
2018-07-01T05:49:20.174Z,20.04
2018-07-01T05:50:22.104Z,20.10
2018-07-01T05:51:20.050Z,20.12
2018-07-01T05:52:20.001Z,20.27
2018-07-01T05:53:19.798Z,20.27
2018-07-01T05:54:19.765Z,20.30
2018-07-01T05:55:19.643Z,20.37
2018-07-01T05:56:19.694Z,20.40
2018-07-01T05:57:19.508Z,20.34
2018-07-01T05:58:19.491Z,20.42
2018-07-01T05:59:19.384Z,20.50
2018-07-01T06:00:19.305Z,20.42
2018-07-01T06:01:19.168Z,20.46
2018-07-01T06:02:19.247Z,20.44
2018-07-01T06:03:19.019Z,20.51
2018-07-01T06:04:19.035Z,20.53
2018-07-01T06:05:18.866Z,20.57
2018-07-01T06:06:18.822Z,20.56
2018-07-01T06:07:18.733Z,20.61
2018-07-01T06:08:18.741Z,20.61
2018-07-01T06:09:18.539Z,20.66
2018-07-01T06:12:00.777Z,20.71
2018-07-01T06:13:00.811Z,20.75
2018-07-01T06:14:00.673Z,20.73
2018-07-01T06:15:00.665Z,20.72
2018-07-01T06:16:00.500Z,20.78
2018-07-01T06:17:00.474Z,20.81
2018-07-01T06:18:00.429Z,20.73
2018-07-01T06:19:00.283Z,20.78
2018-07-01T06:20:00.169Z,20.85
2018-07-01T06:21:00.198Z,20.90
2018-07-01T06:21:59.995Z,20.91
2018-07-01T06:22:59.994Z,20.98
2018-07-01T06:23:59.860Z,21.08
2018-07-01T06:24:59.809Z,21.11
2018-07-01T06:25:59.707Z,21.12
2018-07-01T06:26:59.721Z,21.12
2018-07-01T06:27:59.544Z,21.21
2018-07-01T06:28:59.551Z,21.42
2018-07-01T06:29:59.372Z,21.37
2018-07-01T06:32:41.314Z,21.40
2018-07-01T06:33:41.490Z,21.61
2018-07-01T06:34:41.129Z,22.06
2018-07-01T06:35:41.139Z,22.93
2018-07-01T06:36:40.970Z,23.59
2018-07-01T06:37:40.943Z,24.09
2018-07-01T06:38:40.830Z,24.08
2018-07-01T06:39:40.804Z,23.67
2018-07-01T06:40:40.660Z,23.96
2018-07-01T06:41:40.667Z,24.21
2018-07-01T06:42:40.518Z,24.63
2018-07-01T06:43:40.476Z,25.14
2018-07-01T06:44:40.368Z,24.68
2018-07-01T06:45:40.385Z,24.31
2018-07-01T06:46:40.250Z,24.75
2018-07-01T06:47:40.190Z,25.02
2018-07-01T06:48:40.062Z,25.36
2018-07-01T06:49:40.037Z,25.44
2018-07-01T06:50:39.900Z,25.48
2018-07-01T06:51:39.915Z,25.02
2018-07-01T06:52:39.755Z,24.23
2018-07-01T06:53:39.722Z,24.80
2018-07-01T06:54:39.628Z,24.64
2018-07-01T06:55:39.686Z,24.61
2018-07-01T06:56:39.465Z,24.29
2018-07-01T06:57:39.447Z,24.39
2018-07-01T06:58:39.308Z,24.19
2018-07-01T06:59:39.245Z,24.37
2018-07-01T07:00:39.176Z,24.86
2018-07-01T07:01:39.099Z,24.29
2018-07-01T07:02:39.030Z,24.82
2018-07-01T07:03:38.976Z,24.55
2018-07-01T07:04:38.882Z,23.94
2018-07-01T07:05:38.921Z,24.08
2018-07-01T07:06:38.722Z,24.24
2018-07-01T07:07:38.687Z,24.31
2018-07-01T07:08:38.576Z,24.67
2018-07-01T07:09:38.607Z,23.81
2018-07-01T07:10:38.443Z,24.48
2018-07-01T07:11:38.436Z,23.97
2018-07-01T07:12:38.342Z,24.15
2018-07-01T07:13:38.332Z,23.78
2018-07-01T07:14:38.125Z,24.37
2018-07-01T07:15:38.267Z,24.34
2018-07-01T07:16:37.990Z,24.36
2018-07-01T07:17:37.939Z,24.15
2018-07-01T07:18:37.879Z,24.00
2018-07-01T07:19:37.864Z,24.26
2018-07-01T07:20:37.688Z,23.96
2018-07-01T07:21:37.692Z,24.29
2018-07-01T07:22:37.542Z,24.75
2018-07-01T07:23:37.561Z,25.61
2018-07-01T07:24:37.402Z,25.60
2018-07-01T07:25:37.479Z,25.56
2018-07-01T07:26:37.270Z,25.49
2018-07-01T07:27:37.286Z,25.27
2018-07-01T07:28:37.176Z,24.94
2018-07-01T07:29:37.097Z,24.92
2018-07-01T07:30:36.970Z,24.93
2018-07-01T07:31:37.043Z,25.38
2018-07-01T07:32:36.806Z,25.17
2018-07-01T07:33:36.806Z,25.91
2018-07-01T07:34:36.668Z,26.08
2018-07-01T07:35:36.619Z,26.64
2018-07-01T07:36:36.539Z,26.47
2018-07-01T07:37:36.534Z,25.71
2018-07-01T07:38:36.379Z,25.48
2018-07-01T07:39:36.331Z,25.64
2018-07-01T07:40:36.231Z,26.03
2018-07-01T07:41:36.284Z,26.06
2018-07-01T07:42:36.092Z,25.72
2018-07-01T07:43:36.056Z,26.01
2018-07-01T07:44:35.940Z,25.71
2018-07-01T07:47:17.855Z,24.64
2018-07-01T07:48:17.869Z,25.07
2018-07-01T07:49:17.668Z,25.17
2018-07-01T07:50:17.679Z,25.22
2018-07-01T07:51:17.567Z,25.22
2018-07-01T07:52:17.593Z,25.78
2018-07-01T07:53:17.411Z,25.31
2018-07-01T07:54:17.390Z,25.30
2018-07-01T07:55:17.253Z,25.61
2018-07-01T07:56:17.202Z,26.73
2018-07-01T07:57:17.166Z,27.08
2018-07-01T07:58:17.123Z,26.94
2018-07-01T08:02:03.502Z,25.63
2018-07-01T08:03:03.367Z,24.70
2018-07-01T08:04:03.326Z,25.46
2018-07-01T08:05:03.157Z,25.20
2018-07-01T08:06:03.134Z,25.38
2018-07-01T08:07:02.967Z,25.23
2018-07-01T08:08:02.969Z,25.63
2018-07-01T08:09:02.841Z,26.64
2018-07-01T08:10:02.853Z,26.36
2018-07-01T08:11:02.703Z,26.28
2018-07-01T08:12:02.666Z,26.87
2018-07-01T08:13:02.654Z,26.98
2018-07-01T08:14:02.575Z,26.47
2018-07-01T08:15:02.397Z,26.87
2018-07-01T08:16:02.389Z,26.73
2018-07-01T08:17:02.273Z,26.53
2018-07-01T08:18:02.293Z,26.53
2018-07-01T08:19:02.135Z,25.75
2018-07-01T08:20:02.101Z,25.90
2018-07-01T08:21:01.987Z,26.49
2018-07-01T08:22:02.090Z,26.08
2018-07-01T08:23:01.836Z,25.59
2018-07-01T08:24:01.849Z,25.53
2018-07-01T08:25:01.707Z,26.24
2018-07-01T08:26:01.728Z,26.79
2018-07-01T08:27:01.575Z,27.24
2018-07-01T08:28:01.541Z,27.01
2018-07-01T08:29:01.506Z,26.68
2018-07-01T08:30:01.466Z,26.41
2018-07-01T08:31:01.283Z,26.09
2018-07-01T08:32:01.263Z,26.53
2018-07-01T08:33:01.130Z,26.86
2018-07-01T08:34:01.196Z,26.88
2018-07-01T08:35:00.987Z,26.78
2018-07-01T08:36:00.979Z,26.53
2018-07-01T08:37:00.881Z,26.29
2018-07-01T08:38:00.893Z,26.49
2018-07-01T08:39:00.722Z,27.30
2018-07-01T08:40:00.728Z,26.72
2018-07-01T08:41:00.787Z,27.28
2018-07-01T08:43:42.830Z,28.45
2018-07-01T08:44:42.848Z,27.96
2018-07-01T08:45:42.707Z,27.15
2018-07-01T08:46:42.730Z,25.74
2018-07-01T08:47:42.560Z,25.71
2018-07-01T08:48:42.630Z,26.23
2018-07-01T08:49:42.456Z,26.73
2018-07-01T08:50:42.467Z,26.84
2018-07-01T08:51:42.294Z,27.55
2018-07-01T08:52:42.317Z,27.59
2018-07-01T08:53:42.155Z,28.02
2018-07-01T08:54:42.182Z,26.98
2018-07-01T08:55:42.025Z,27.62
2018-07-01T08:56:41.976Z,27.63
2018-07-01T08:57:41.893Z,27.25
2018-07-01T08:58:41.874Z,28.21
2018-07-01T08:59:41.855Z,28.60
2018-07-01T09:00:41.729Z,29.49
2018-07-01T09:01:41.603Z,30.30
2018-07-01T09:02:41.600Z,30.19
2018-07-01T09:03:41.470Z,30.49
2018-07-01T09:04:41.576Z,29.89
2018-07-01T09:05:41.358Z,29.20
2018-07-01T09:06:41.324Z,29.62
2018-07-01T09:07:41.186Z,29.73
2018-07-01T09:08:41.292Z,30.21
2018-07-01T09:09:41.071Z,29.95
2018-07-01T09:10:41.083Z,30.66
2018-07-01T09:11:40.962Z,30.22
2018-07-01T09:12:40.954Z,29.48
2018-07-01T09:13:40.820Z,29.66
2018-07-01T09:14:40.791Z,28.65
2018-07-01T09:15:40.749Z,28.69
2018-07-01T09:16:40.721Z,29.51
2018-07-01T09:17:40.519Z,30.04
2018-07-01T09:18:40.570Z,30.04
2018-07-01T09:19:40.452Z,30.26
2018-07-01T09:20:40.382Z,29.12
2018-07-01T09:21:40.268Z,29.69
2018-07-01T09:22:40.346Z,29.57
2018-07-01T09:23:40.153Z,28.20
2018-07-01T09:24:40.119Z,27.50
2018-07-01T09:25:39.992Z,26.53
2018-07-01T09:26:40.059Z,27.03
2018-07-01T09:27:39.900Z,27.80
2018-07-01T09:28:39.821Z,29.10
2018-07-01T09:29:39.728Z,30.38
2018-07-01T09:30:39.752Z,31.00
2018-07-01T09:31:39.611Z,31.78
2018-07-01T09:32:39.570Z,30.83
2018-07-01T09:33:39.499Z,31.27
2018-07-01T09:34:39.500Z,31.01
2018-07-01T09:35:39.338Z,31.67
2018-07-01T09:36:39.364Z,32.05
2018-07-01T09:37:39.242Z,31.45
2018-07-01T09:38:39.182Z,30.64
2018-07-01T09:39:39.078Z,30.40
2018-07-01T09:40:39.095Z,31.27
2018-07-01T09:41:38.942Z,31.79
2018-07-01T09:42:38.947Z,31.60
2018-07-01T09:43:38.820Z,30.94
2018-07-01T09:44:38.819Z,31.10
2018-07-01T09:45:38.673Z,31.78
2018-07-01T09:46:38.735Z,30.82
2018-07-01T09:47:38.568Z,29.97
2018-07-01T09:48:38.532Z,30.44
2018-07-01T09:49:38.427Z,31.13
2018-07-01T09:50:38.449Z,31.67
2018-07-01T09:51:38.308Z,31.49
2018-07-01T09:52:38.272Z,31.64
2018-07-01T09:53:38.168Z,31.82
2018-07-01T09:54:38.275Z,31.45
2018-07-01T09:55:38.094Z,31.76
2018-07-01T09:56:38.137Z,31.90
2018-07-01T09:57:37.909Z,30.98
2018-07-01T09:58:37.873Z,31.52
2018-07-01T09:59:37.786Z,32.28
2018-07-01T10:00:38.140Z,32.47
2018-07-01T10:01:37.701Z,32.02
2018-07-01T10:02:37.694Z,32.12
2018-07-01T10:03:37.530Z,32.41
2018-07-01T10:04:37.513Z,31.82
2018-07-01T10:05:37.413Z,30.42
2018-07-01T10:06:37.454Z,29.74
2018-07-01T10:07:37.292Z,30.15
2018-07-01T10:08:37.328Z,31.01
2018-07-01T10:09:37.145Z,29.99
2018-07-01T10:10:37.147Z,30.10
2018-07-01T10:11:37.044Z,30.97
2018-07-01T10:12:37.199Z,29.94
2018-07-01T10:13:36.917Z,29.21
2018-07-01T10:14:37.273Z,29.08
2018-07-01T10:15:36.772Z,29.64
2018-07-01T10:18:18.921Z,30.68
2018-07-01T10:19:18.883Z,31.18
2018-07-01T10:20:18.746Z,31.62
2018-07-01T10:21:18.780Z,32.16
2018-07-01T10:22:18.620Z,32.06
2018-07-01T10:23:18.626Z,31.72
2018-07-01T10:24:18.517Z,30.83
2018-07-01T10:25:18.501Z,30.63
2018-07-01T10:26:18.377Z,31.03
2018-07-01T10:27:18.416Z,31.91
2018-07-01T10:28:18.258Z,32.41
2018-07-01T10:29:18.237Z,32.49
2018-07-01T10:30:18.113Z,32.40
2018-07-01T10:31:18.125Z,31.65
2018-07-01T10:32:17.994Z,30.79
2018-07-01T10:33:18.062Z,29.67
2018-07-01T10:34:17.860Z,28.14
2018-07-01T10:35:17.858Z,28.05
2018-07-01T10:36:17.759Z,27.95
2018-07-01T10:37:17.916Z,28.32
2018-07-01T10:38:17.610Z,28.89
2018-07-01T10:39:17.605Z,29.70
2018-07-01T10:40:17.634Z,30.29
2018-07-01T10:41:17.551Z,30.67
2018-07-01T10:42:17.530Z,30.93
2018-07-01T10:43:17.385Z,31.15
2018-07-01T10:44:17.254Z,31.54
2018-07-01T10:45:17.197Z,30.94
2018-07-01T10:46:17.099Z,30.97
2018-07-01T10:47:17.112Z,31.16
2018-07-01T10:48:16.968Z,31.25
2018-07-01T10:49:17.016Z,31.64
2018-07-01T10:50:16.877Z,31.50
2018-07-01T10:51:16.890Z,31.57
2018-07-01T10:52:16.750Z,31.13
2018-07-01T10:53:16.750Z,30.76
2018-07-01T10:54:16.591Z,30.40
2018-07-01T10:55:16.679Z,29.03
2018-07-01T10:56:16.462Z,28.58
2018-07-01T10:57:16.458Z,28.83
2018-07-01T10:58:16.352Z,28.62
2018-07-01T10:59:16.362Z,28.05
2018-07-01T11:00:16.247Z,28.21
2018-07-01T11:02:58.438Z,29.11
2018-07-01T11:03:58.405Z,30.22
2018-07-01T11:04:58.264Z,30.11
2018-07-01T11:05:58.374Z,29.79
2018-07-01T11:06:58.152Z,28.80
2018-07-01T11:07:58.138Z,29.89
2018-07-01T11:08:58.009Z,30.70
2018-07-01T11:09:58.019Z,30.59
2018-07-01T11:10:57.926Z,31.22
2018-07-01T11:11:57.931Z,30.91
2018-07-01T11:12:57.767Z,30.51
2018-07-01T11:13:57.754Z,30.73
2018-07-01T11:14:57.634Z,31.07
2018-07-01T11:15:57.682Z,31.31
2018-07-01T11:16:57.510Z,31.78
2018-07-01T11:17:57.554Z,31.67
2018-07-01T11:18:57.383Z,31.82
2018-07-01T11:19:57.367Z,31.99
2018-07-01T11:20:57.324Z,31.05
2018-07-01T11:21:57.282Z,29.39
2018-07-01T11:22:57.138Z,29.03
2018-07-01T11:23:57.185Z,29.39
2018-07-01T11:24:57.023Z,29.89
2018-07-01T11:25:58.071Z,30.51
2018-07-01T11:26:57.033Z,31.05
2018-07-01T11:27:56.910Z,30.42
2018-07-01T11:30:21.392Z,30.85
2018-07-01T11:31:21.444Z,31.34
2018-07-01T11:32:21.286Z,31.00
2018-07-01T11:33:21.322Z,31.56
2018-07-01T11:34:21.154Z,31.79
2018-07-01T11:35:21.216Z,31.01
2018-07-01T11:36:21.031Z,30.78
2018-07-01T11:37:21.071Z,31.15
2018-07-01T11:38:20.891Z,30.97
2018-07-01T11:39:20.950Z,30.93
2018-07-01T11:40:20.765Z,30.75
2018-07-01T11:41:20.854Z,30.68
2018-07-01T11:42:20.659Z,30.57
2018-07-01T11:43:20.646Z,30.36
2018-07-01T11:44:20.530Z,30.59
2018-07-01T11:45:20.552Z,30.72
2018-07-01T11:46:20.400Z,30.00
2018-07-01T11:47:20.401Z,30.42
2018-07-01T11:48:20.267Z,30.86
2018-07-01T11:49:20.316Z,30.76
2018-07-01T11:50:20.179Z,31.05
2018-07-01T11:51:20.199Z,30.81
2018-07-01T11:52:20.067Z,30.59
2018-07-01T11:53:20.039Z,30.79
2018-07-01T11:54:19.891Z,30.54
2018-07-01T11:55:19.932Z,30.60
2018-07-01T11:56:19.777Z,30.63
2018-07-01T11:57:19.754Z,30.46
2018-07-01T11:58:19.648Z,30.19
2018-07-01T11:59:19.637Z,30.11
2018-07-01T12:00:19.533Z,30.42
2018-07-01T12:01:19.920Z,30.79
2018-07-01T12:02:19.404Z,30.66
2018-07-01T12:03:19.360Z,30.34
2018-07-01T12:04:19.262Z,29.95
2018-07-01T12:05:19.303Z,29.18
2018-07-01T12:06:19.127Z,29.55
2018-07-01T12:07:19.176Z,29.57
2018-07-01T12:08:19.011Z,29.18
2018-07-01T12:09:18.972Z,29.18
2018-07-01T12:10:18.839Z,29.21
2018-07-01T12:11:18.888Z,29.37
2018-07-01T12:12:18.711Z,29.36
2018-07-01T12:13:18.780Z,28.77
2018-07-01T12:14:18.564Z,28.58
2018-07-01T12:15:18.618Z,28.39
2018-07-01T12:16:18.429Z,28.42
2018-07-01T12:17:18.419Z,28.32
2018-07-01T12:18:18.302Z,28.42
2018-07-01T12:19:18.332Z,28.36
2018-07-01T12:20:18.369Z,28.32
2018-07-01T12:21:18.172Z,28.52
2018-07-01T12:22:18.202Z,28.51
2018-07-01T12:23:18.106Z,28.24
2018-07-01T12:24:17.866Z,28.23
2018-07-01T12:25:17.852Z,27.80
2018-07-01T12:26:17.807Z,27.98
2018-07-01T12:27:17.765Z,28.06
2018-07-01T12:28:17.616Z,28.23
2018-07-01T12:29:17.621Z,28.23
2018-07-01T12:30:17.453Z,27.72
2018-07-01T12:31:17.440Z,27.50
2018-07-01T12:32:17.294Z,27.83
2018-07-01T12:33:17.343Z,28.08
2018-07-01T12:34:17.189Z,28.08
2018-07-01T12:35:17.094Z,28.32
2018-07-01T12:36:17.006Z,28.36
2018-07-01T12:37:17.059Z,28.35
2018-07-01T12:38:16.865Z,27.87
2018-07-01T12:39:16.838Z,27.86
2018-07-01T12:40:16.783Z,27.93
2018-07-01T12:41:16.743Z,27.86
2018-07-01T12:42:16.638Z,27.77
2018-07-01T12:43:16.564Z,27.88
2018-07-01T12:44:16.439Z,27.84
2018-07-01T12:45:16.499Z,27.98
2018-07-01T12:46:16.359Z,28.14
2018-07-01T12:47:16.277Z,28.35
2018-07-01T12:48:16.136Z,28.55
2018-07-01T12:49:16.185Z,28.43
2018-07-01T12:50:16.034Z,28.40
2018-07-01T12:51:15.986Z,28.30
2018-07-01T12:52:15.832Z,28.20
2018-07-01T12:53:15.900Z,28.08
2018-07-01T12:54:15.710Z,27.99
2018-07-01T12:55:15.745Z,28.08
2018-07-01T12:56:15.608Z,28.32
2018-07-01T12:57:15.503Z,28.55
2018-07-01T12:58:15.409Z,28.23
2018-07-01T12:59:15.427Z,28.14
2018-07-01T13:00:15.267Z,28.38
2018-07-01T13:01:15.261Z,28.39
2018-07-01T13:02:15.137Z,28.69
2018-07-01T13:03:15.143Z,28.74
2018-07-01T13:04:14.965Z,28.70
2018-07-01T13:05:14.949Z,28.21
2018-07-01T13:06:14.844Z,28.13
2018-07-01T13:07:14.959Z,27.88
2018-07-01T13:08:14.670Z,27.87
2018-07-01T13:09:14.684Z,27.74
2018-07-01T13:10:14.524Z,27.86
2018-07-01T13:11:14.599Z,27.91
2018-07-01T13:12:14.424Z,27.98
2018-07-01T13:13:14.408Z,27.93
2018-07-01T13:14:14.236Z,28.09
2018-07-01T13:15:14.229Z,28.03
2018-07-01T13:16:14.102Z,28.03
2018-07-01T13:17:14.172Z,27.98
2018-07-01T13:18:13.951Z,28.13
2018-07-01T13:19:13.945Z,28.23
2018-07-01T13:20:13.796Z,28.36
2018-07-01T13:21:13.863Z,28.42
2018-07-01T13:22:13.769Z,28.58
2018-07-01T13:23:13.667Z,28.33
2018-07-01T13:24:13.544Z,28.30
2018-07-01T13:25:13.651Z,28.25
2018-07-01T13:26:13.363Z,28.08
2018-07-01T13:27:13.414Z,28.03
2018-07-01T13:28:13.213Z,28.11
2018-07-01T13:30:55.457Z,28.39
2018-07-01T13:31:55.497Z,28.30
2018-07-01T13:32:55.378Z,28.24
2018-07-01T13:33:55.307Z,27.95
2018-07-01T13:34:55.158Z,27.86
2018-07-01T13:35:55.279Z,27.74
2018-07-01T13:36:55.040Z,27.86
2018-07-01T13:37:55.077Z,27.66
2018-07-01T13:38:54.857Z,27.80
2018-07-01T13:39:54.941Z,27.93
2018-07-01T13:40:54.802Z,27.98
2018-07-01T13:41:54.755Z,28.06
2018-07-01T13:42:54.688Z,28.01
2018-07-01T13:43:54.588Z,28.05
2018-07-01T13:44:54.418Z,28.05
2018-07-01T13:45:54.498Z,28.05
2018-07-01T13:46:54.284Z,28.32
2018-07-01T13:47:54.289Z,28.33
2018-07-01T13:48:54.148Z,28.45